• Join FlightAware (Why Join?)
  • Login
  • US Flag 
12:25PM EDT


 

Airport Tracker/Info


-or-


 

Live Flight TrackerFlight Track Log ✈ EJA951 ✈ 05-Nov-2013 ✈ KPDK - KBNA

Flight Track Log - Related Links

Times and Time Zones

All times are in EST time to prevent confusion due to time zone crossing. See the EJA951 flight status page for this flight to view local times or setup timezone preferences in your user account.

Time Position Orientation Groundspeed Altitude Reporting Facility
EST Latitude Longitude Course Direction KTS MPH feet Rate Location/Type
12:40PM 33.9736 -84.2967 327° Northwest 207 238 8,000  Level Atlanta Center
12:41PM 34.0381 -84.3447 328° Northwest 244 281 10,000 900 Climbing Atlanta Center
12:43PM 34.1275 -84.4153 327° Northwest 304 350 10,000 780 Level Atlanta Center
12:44PM 34.2131 -84.4833 327° Northwest 349 402 11,800 1,860 Climbing Atlanta Center
12:45PM 34.3738 -84.8132 327° Northwest  Level Estimated
12:45PM 34.2961 -84.5592 323° Northwest 376 433 13,800  Level Atlanta Center
12:46PM 34.3667 -84.6503 313° West 376 433 15,800 1,680 Climbing Atlanta Center
12:47PM 34.4414 -84.7414 315° West 372 428 17,200 1,140 Climbing Atlanta Center
12:48PM 34.5181 -84.8406 313° West 382 440 18,200 720 Climbing Atlanta Center
12:49PM 34.5967 -84.9397 314° West 401 461 18,700 720 Climbing Atlanta Center
12:50PM 34.6814 -85.0364 317° Northwest 408 470 19,700 1,140 Climbing Atlanta Center
12:51PM 34.7808 -85.1136 327° Northwest 413 475 21,000 840 Climbing Atlanta Center
12:52PM 34.9519 -85.2444 328° Northwest 446 513 22,000 360 Climbing Memphis Center
12:53PM 35.0556 -85.3269 327° Northwest 452 520 22,000  Level Memphis Center
12:54PM 35.1611 -85.4119 327° Northwest 457 526 22,000  Level Memphis Center
12:55PM 35.2422 -85.5114 315° West 432 497 22,000  Level Memphis Center
12:56PM 35.3125 -85.6039 313° West 402 463 22,000  Level Memphis Center
12:57PM 35.3806 -85.6919 313° West 370 426 22,000  Level Memphis Center
12:58PM 35.4442 -85.7725 314° West 348 400 22,000 -540 Level Memphis Center
12:59PM 35.5119 -85.8631 313° West 347 399 21,000 -1,560 Descending Memphis Center
01:00PM 35.5886 -85.9608 314° West 374 430 18,900 -1,860 Descending Memphis Center
01:01PM 35.6650 -86.0617 313° West 379 436 17,300 -1,980 Descending Memphis Center
01:02PM 35.7306 -86.1503 312° West 363 418 15,000 -2,100 Descending Memphis Center
01:03PM 35.7961 -86.2392 312° West 358 412 13,100 -1,860 Descending Memphis Center
01:04PM 35.8594 -86.3231 313° West 353 406 11,300 -1,800 Descending Memphis Center
01:05PM 35.9203 -86.4019 314° West 336 387 9,600 -1,620 Descending Memphis Center
01:06PM 35.9747 -86.4736 313° West 300 345 8,100 -1,320 Descending Memphis Center
01:07PM 36.0203 -86.5333 313° West 262 302 7,000 -960 Descending Memphis Center
01:08PM 36.0694 -86.5719 328° Northwest 224 258 6,200 -900 Descending Memphis Center
01:09PM 36.1294 -86.5539 14° North 199 229 5,200 -900 Descending Memphis Center
01:10PM 36.1892 -86.5278 19° North 218 251 4,500 -900 Descending Memphis Center
01:11PM 36.2469 -86.5097 14° North 218 251 3,400 -780 Descending Memphis Center
01:12PM 36.2692 -86.5550 301° West 163 188 3,000 -300 Descending Memphis Center
01:13PM 36.2436 -86.6075 239° Southwest 122 140 2,900 -540 Descending Memphis Center
01:15PM 36.1667 -86.6500 204° Southwest 128 147 1,400 -720 Descending Nashville TRACON
01:17PM 36.1245 -86.6782 176° South  Level Estimated
01:24PM 36.1245 -86.6782 349° North  Level Estimated
01:25PM 36.1245 -86.6782 349° North  Level Estimated
01:26PM 36.1245 -86.6782 349° North  Level Estimated
01:27PM 36.1245 -86.6782 349° North  Level Estimated
01:28PM 36.1245 -86.6782 349° North  Level Estimated
01:29PM 36.1245 -86.6782 349° North  Level Estimated
01:30PM 36.1245 -86.6782 349° North  Level Estimated
01:31PM 36.1245 -86.6782 349° North  Level Estimated